Meteo Giornale » Osservazioni meteo Svizzera » Samedan

ore: 08:50 - Osservazioni Meteo Samedan
Lat. 46° 32' N Lon. 9° 53' E Alt. 1706 metri s.l.m.

sereno Europe/Zurich

-3 °C

Sereno

Temp. 24 Ore

-4 °C

12 °C

Nord

1.8 Km/h

Dew point -5 °C

Umidità 86 %

Visibilità  10 Km

Il sole sorge alle ore 06:41

Il sole tramonta alle ore 20:02

Data e Ora Cielo e Fenomeni T °C DP °C Um. % Pres. hPa Vis. km Vento km/h
Oggi h: 08:50 sereno Sereno -3 -5 86 1026 10 N 1.8
Oggi h: 08:20 sereno Sereno -3 -5 86 1026 10 N 1.8
Oggi h: 07:50 sereno Sereno -4 -5 92 1026 10 N 3.7
Oggi h: 07:20 sereno Sereno -4 -5 92 1026 10 N 3.7
Oggi h: 06:50 sereno Sereno -4 -5 92 1025 10 N 1.8
Oggi h: 06:20 sereno Sereno -4 -5 92 1025 10 N 3.7
Oggi h: 05:50 sereno Sereno -3 -5 86 1025 10 N 1.8
Oggi h: 05:20 sereno Sereno -3 -5 86 1025 10 N 3.7
Oggi h: 04:50 sereno Sereno -4 -5 92 1025 10 N 3.7
Oggi h: 04:20 sereno Sereno -3 -5 86 1025 10 N 3.7
Oggi h: 03:50 sereno Sereno -3 -5 86 1025 10 N 3.7
Oggi h: 03:20 sereno Sereno -2 -4 86 1026 10 N 3.7
Oggi h: 02:50 sereno Sereno -2 -5 79 1026 10 N 3.7
Oggi h: 02:20 sereno Sereno -2 -5 79 1026 10 N 3.7
Oggi h: 01:50 sereno Sereno -2 -4 86 1026 10 N 3.7
Oggi h: 01:20 sereno Sereno -2 -4 86 1026 10 N 3.7
Oggi h: 00:50 sereno Sereno -1 -4 80 1026 10 N 3.7
Oggi h: 00:20 sereno Sereno -1 -4 80 1026 10 N 5.5
Ieri h: 23:50 sereno Sereno -1 -4 80 1026 10 N 3.7
Ieri h: 23:20 sereno Sereno -0 -4 74 1026 10 S 7.4
Ieri h: 22:50 sereno Sereno 0 -4 74 1026 10 N 5.5
Ieri h: 22:20 sereno Sereno 1 -4 69 1026 10 S 7.4
Ieri h: 21:50 sereno Sereno 1 -3 74 1026 10 S/SO 9.3
Ieri h: 21:20 sereno Sereno 3 -4 59 1026 10 S/SO 9.3
Ieri h: 20:50 sereno Sereno 3 -3 64 1026 10 S/SO 7.4
Ieri h: 20:20 sereno Sereno 6 -3 52 1025 10 S/SE 11.1
Ieri h: 19:50 sereno Sereno 7 -3 48 1025 10 S/SE 11.1
Ieri h: 19:20 sereno Sereno 7 -3 48 1025 10 S 9.3
Ieri h: 18:50 sereno Sereno 8 -3 45 1025 10 O/SO 11.1
Ieri h: 17:50 sereno Sereno 11 -4 34 1025 10 SO 14.8
Ieri h: 17:20 sereno Sereno 11 -3 37 1025 10 SO 14.8
Ieri h: 16:50 sereno Sereno 11 -5 32 1025 10 SO 13
Ieri h: 16:20 sereno Sereno 11 -7 27 1025 10 O 9.3
Ieri h: 15:50 sereno Sereno 10 -5 34 1026 10 SO 11.1
Ieri h: 15:20 sereno Sereno 11 -5 32 1026 10 S/SO 9.3
Ieri h: 14:50 sereno Sereno 12 -6 27 1026 10 N 1.8
Ieri h: 14:20 sereno Sereno 11 -7 27 1026 10 N 3.7
Ieri h: 13:50 sereno Sereno 11 -8 25 1027 10 N 1.8
Ieri h: 13:20 sereno Sereno 10 -8 27 1027 10 N 1.8
Ieri h: 12:50 sereno Sereno 9 -3 42 1027 10 N 1.8
Ieri h: 12:20 sereno Sereno 8 -4 42 1028 10 N 0
Ieri h: 11:50 sereno Sereno 9 -2 45 1028 10 N 0
Ieri h: 11:20 sereno Sereno 6 -4 48 1028 10 N 1.8
Ieri h: 10:50 sereno Sereno 4 -4 55 1029 10 N 1.8
Ieri h: 10:20 sereno Sereno 3 -3 64 1029 10 N 0
Ieri h: 09:50 sereno Sereno 1 -3 74 1029 10 N 0